Time,TemperatureF,DewpointF,PressureIn,WindDirection,WindDirectionDegrees,WindSpeedMPH,WindSpeedGustMPH,Humidity,HourlyPrecipIn,Conditions,Clouds,dailyrainin,SoftwareType,DateUTC
2013-04-02 00:00:00,35.8,14.4,29.79,SW,219,6.0,6.0,41,0.00,,,0.15,Wunderground v.1.15,2013-04-02 04:00:00,
2013-04-02 00:30:00,35.2,16.0,29.80,West,263,4.0,4.0,45,0.00,,,0.00,Wunderground v.1.15,2013-04-02 04:30:00,
2013-04-02 01:00:00,34.4,16.2,29.81,West,277,2.0,7.0,47,0.00,,,0.00,Wunderground v.1.15,2013-04-02 05:00:00,
2013-04-02 01:30:00,34.1,15.5,29.82,WNW,285,4.0,5.0,46,0.00,,,0.00,Wunderground v.1.15,2013-04-02 05:30:00,
2013-04-02 02:00:00,33.7,14.1,29.82,West,259,5.0,5.0,44,0.00,,,0.00,Wunderground v.1.15,2013-04-02 06:00:00,
2013-04-02 02:30:00,33.1,14.5,29.81,West,273,3.0,3.0,46,0.00,,,0.00,Wunderground v.1.15,2013-04-02 06:30:00,
2013-04-02 03:00:00,32.5,14.0,29.82,West,273,2.0,2.0,46,0.00,,,0.00,Wunderground v.1.15,2013-04-02 07:00:00,
2013-04-02 03:30:00,32.0,14.0,29.82,WSW,249,2.0,2.0,47,0.00,,,0.00,Wunderground v.1.15,2013-04-02 07:30:00,
2013-04-02 04:00:00,31.5,13.6,29.83,West,274,2.0,2.0,47,0.00,,,0.00,Wunderground v.1.15,2013-04-02 08:00:00,
2013-04-02 04:30:00,31.2,13.8,29.83,West,263,2.0,2.0,48,0.00,,,0.00,Wunderground v.1.15,2013-04-02 08:30:00,
2013-04-02 05:00:00,30.6,13.7,29.83,West,264,2.0,2.0,49,0.00,,,0.00,Wunderground v.1.15,2013-04-02 09:00:00,
2013-04-02 05:30:00,30.5,14.5,29.84,West,278,1.0,1.0,51,0.00,,,0.00,Wunderground v.1.15,2013-04-02 09:30:00,
2013-04-02 06:00:00,30.3,14.3,29.85,WNW,284,2.0,2.0,51,0.00,,,0.00,Wunderground v.1.15,2013-04-02 10:00:00,
2013-04-02 06:30:00,30.1,15.0,29.86,West,270,2.0,5.0,53,0.00,,,0.00,Wunderground v.1.15,2013-04-02 10:30:00,
2013-04-02 07:00:00,30.0,15.8,29.87,NW,316,1.0,1.0,55,0.00,,,0.00,Wunderground v.1.15,2013-04-02 11:00:00,
2013-04-02 07:30:00,31.0,16.7,29.88,NNW,328,1.0,1.0,55,0.00,,,0.00,Wunderground v.1.15,2013-04-02 11:30:00,
2013-04-02 08:00:00,33.0,17.7,29.88,WNW,284,3.0,3.0,53,0.00,,,0.00,Wunderground v.1.15,2013-04-02 12:00:00,
2013-04-02 08:30:00,34.0,17.3,29.89,WNW,288,3.0,3.0,50,0.00,,,0.00,Wunderground v.1.15,2013-04-02 12:30:00,
2013-04-02 09:00:00,34.7,17.9,29.88,West,268,5.0,5.0,50,0.00,,,0.00,Wunderground v.1.15,2013-04-02 13:00:00,
2013-04-02 09:30:00,35.7,17.4,29.88,West,276,3.0,7.0,47,0.00,,,0.00,Wunderground v.1.15,2013-04-02 13:30:00,
2013-04-02 10:00:00,35.0,17.7,29.88,WNW,294,4.0,4.0,49,0.00,,,0.00,Wunderground v.1.15,2013-04-02 14:00:00,
2013-04-02 10:30:00,36.0,16.7,29.88,SW,217,5.0,6.0,45,0.00,,,0.00,Wunderground v.1.15,2013-04-02 14:30:00,
2013-04-02 11:00:00,37.3,16.8,29.87,SSE,158,4.0,4.0,43,0.00,,,0.00,Wunderground v.1.15,2013-04-02 15:00:00,
2013-04-02 11:30:00,38.4,16.1,29.87,West,259,5.0,8.0,40,0.00,,,0.00,Wunderground v.1.15,2013-04-02 15:30:00,
2013-04-02 12:00:00,39.0,16.1,29.86,East,95,4.0,4.0,39,0.00,,,0.00,Wunderground v.1.15,2013-04-02 16:00:00,
2013-04-02 12:30:00,38.9,17.7,29.86,WSW,256,4.0,6.0,42,0.00,,,0.00,Wunderground v.1.15,2013-04-02 16:30:00,
2013-04-02 13:00:00,38.5,15.7,29.85,West,259,5.0,5.0,39,0.00,,,0.00,Wunderground v.1.15,2013-04-02 17:00:00,
2013-04-02 13:30:00,39.3,13.9,29.84,North,356,7.0,7.0,35,0.00,,,0.00,Wunderground v.1.15,2013-04-02 17:30:00,
2013-04-02 14:01:00,39.9,16.3,29.83,West,259,6.0,6.0,38,0.00,,,0.00,Wunderground v.1.15,2013-04-02 18:01:00,
2013-04-02 14:30:00,40.9,14.0,29.83,SE,139,6.0,6.0,33,0.00,,,0.00,Wunderground v.1.15,2013-04-02 18:30:00,
2013-04-02 15:00:00,40.2,14.7,29.83,West,271,6.0,6.0,35,0.00,,,0.00,Wunderground v.1.15,2013-04-02 19:00:00,
2013-04-02 15:31:00,39.4,14.0,29.82,WSW,255,8.0,8.0,35,0.00,,,0.00,Wunderground v.1.15,2013-04-02 19:31:00,
2013-04-02 16:00:00,40.0,12.5,29.82,West,263,8.0,8.0,32,0.00,,,0.00,Wunderground v.1.15,2013-04-02 20:00:00,
2013-04-02 16:30:00,39.2,12.5,29.82,WSW,255,8.0,10.0,33,0.00,,,0.00,Wunderground v.1.15,2013-04-02 20:30:00,
2013-04-02 17:00:00,39.9,10.9,29.83,West,271,6.0,6.0,30,0.00,,,0.00,Wunderground v.1.15,2013-04-02 21:00:00,
2013-04-02 17:30:00,39.3,11.1,29.85,WNW,294,5.0,7.0,31,0.00,,,0.00,Wunderground v.1.15,2013-04-02 21:30:00,
2013-04-02 18:01:00,38.2,11.6,29.86,West,266,7.0,7.0,33,0.00,,,0.00,Wunderground v.1.15,2013-04-02 22:01:00,
2013-04-02 18:30:00,37.5,12.3,29.87,NW,321,8.0,8.0,35,0.00,,,0.00,Wunderground v.1.15,2013-04-02 22:30:00,
2013-04-02 19:30:00,35.9,11.5,29.89,WNW,288,5.0,5.0,36,0.00,,,0.00,Wunderground v.1.15,2013-04-02 23:30:00,
2013-04-02 20:30:00,35.3,12.2,29.92,West,273,5.0,5.0,38,0.00,,,0.00,Wunderground v.1.15,2013-04-03 00:30:00,
2013-04-02 21:00:00,35.0,13.6,29.93,WNW,288,4.0,4.0,41,0.00,,,0.00,Wunderground v.1.15,2013-04-03 01:00:00,
2013-04-02 21:30:00,34.7,13.9,29.93,North,353,5.0,5.0,42,0.00,,,0.00,Wunderground v.1.15,2013-04-03 01:30:00,
2013-04-02 22:00:00,34.7,14.5,29.93,West,281,6.0,6.0,43,0.00,,,0.00,Wunderground v.1.15,2013-04-03 02:00:00,
2013-04-02 22:30:00,34.2,15.0,29.93,West,274,4.0,4.0,45,0.00,,,0.00,Wunderground v.1.15,2013-04-03 02:30:00,
2013-04-02 23:01:00,34.0,15.9,29.93,WSW,252,4.0,5.0,47,0.00,,,0.00,Wunderground v.1.15,2013-04-03 03:01:00,
2013-04-02 23:30:00,33.9,15.8,29.93,West,262,5.0,5.0,47,0.00,,,0.00,Wunderground v.1.15,2013-04-03 03:30:00,